South Lake Tahoe, CA

10:39 PM PDT on August 30, 2014 (GMT -0700)
Carson | Change Station
CLOSE
Current Station
Airport
Location: Carson City,
Elevation: 4705 ft
Nearby Weather Stations

Elev 4705 ft 39.19 °N, 119.73 °W | Updated 4 minutes ago

Clear
Clear
70 °F
Feels Like 70 °F
N
0
Wind Variable Wind from North

Today
High -- | Low -- °F
--% Chance of Precip.
Yesterday
High -- | Low -- °F
Precip. -- in
6:27 AM 7:33 PM
Waxing Crescent, 28% visible
Pressure 30.03 in
Visibility 10.0 miles
Clouds Clear
Dew Point 32 °F
Humidity 25%
Rainfall 0.00 in
Snow Depth 1 in , 0 in , 0 in
UV 0 out of 12
Pollen 9.00 out of 12
Air Quality Not available.
Flu Activity Not available.
METAR KCXP 310535Z AUTO 00000KT 10SM CLR 21/00 A3003 RMK AO2

More Conditions Fewer Conditions

Pressure 30.03 in
Visibility 10.0 miles
Clouds Clear
Dew Point 32 °F
Humidity 25%
Rainfall 0.00 in
Snow Depth 1 in , 0 in , 0 in
UV 0 out of 12
Pollen 9.00 out of 12
Air Quality Not available.
Flu Activity Not available.
METAR KCXP 310535Z AUTO 00000KT 10SM CLR 21/00 A3003 RMK AO2

More Conditions Fewer Conditions

10-Day Weather Forecast

Almanac

Astronomy

Aug. 30, 2014 Rise Set
Actual Time 6:27 AM PDT 7:33 PM PDT
Civil Twilight 5:59 AM PDT 8:00 PM PDT
Nautical Twilight 5:27 AM PDT 8:33 PM PDT
Astronomical Twilight 4:53 AM PDT 9:07 PM PDT
Moon 11:16 AM PDT (8/30) 10:14 PM PDT (8/30)
Length of Visible Light 14h 00m
Length of Day
13h 05m
Tomorrow will be 2m 25s shorter.
Waxing Crescent, 28% of the Moon is Illuminated
Aug 31
Waxing Crescent
Sep 2
First Quarter
Sep 8
Full
Sep 15
Last Quarter
Sep 24
New

Yesterday's Extremes

State Highs State Lows

Community

WunderPhotos

Upload Photos

1,748,790 photos uploaded!

Nearby

Snow Depth

Station Depth Elevation
Echo Peak 1 in 7800 ft
Hagan's Meadow 0 in 8000 ft
Rubicon #2 0 in 7500 ft
Forestdale Creek 0 in 8029 ft
Tahoe City Cross 0 in 6750 ft

Earthquake Activity

City Distance Mag. Time & Date
No recent earthquake activity has been reported nearby.
Minimum magnitude displayed is 2.5.

Coastal Water Temperatures

Place Temperature
No Stations Reporting

Nearby Weather Stations